Time;durP1;ratioP1;P1;durP2;ratioP2;P2;SDS_P1;SDS_P2;PMS_P1;PMS_P2;Temp;Humidity;BMP_temperature;BMP_pressure;BME280_temperature;BME280_humidity;BME280_pressure;Samples;Min_cycle;Max_cycle;Signal;HPM_P1;HPM_P2
2022/09/21 00:01:27;;;;;;;5.35;1.48;;;7.10;99.90;;;6.41;100.00;98709.84;5043266;28;20111;-76
2022/09/21 00:04:01;;;;;;;4.75;1.25;;;7.00;99.90;;;6.28;100.00;98708.22;5042005;28;20049;-76
2022/09/21 00:06:30;;;;;;;;;;;6.90;99.90;;;6.12;100.00;98707.47;5043764;28;20430;-74
2022/09/21 00:08:57;;;;;;;5.60;1.52;;;6.80;99.90;;;6.13;100.00;98706.59;5019153;28;19924;-74
2022/09/21 00:11:30;;;;;;;4.95;1.98;;;6.80;99.90;;;6.17;100.00;98710.88;5044202;28;20049;-74
2022/09/21 00:14:06;;;;;;;6.72;1.92;;;6.80;99.90;;;6.25;100.00;98719.44;5025776;28;20116;-74
2022/09/21 00:16:34;;;;;;;8.02;2.05;;;6.80;99.90;;;6.15;100.00;98725.50;5027857;28;20106;-74
2022/09/21 00:19:01;;;;;;;7.93;1.88;;;6.80;99.90;;;6.18;100.00;98724.63;5026410;28;20468;-74
2022/09/21 00:21:29;;;;;;;5.57;1.45;;;6.80;99.90;;;6.12;100.00;98733.25;5040327;28;20057;-74
2022/09/21 00:23:59;;;;;;;21.08;2.72;;;6.80;99.90;;;6.00;100.00;98738.50;5041479;28;20049;-75
2022/09/21 00:26:27;;;;;;;6.38;1.90;;;6.80;99.90;;;5.90;100.00;98726.47;5046682;28;20091;-74
2022/09/21 00:28:58;;;;;;;5.65;1.52;;;6.70;99.90;;;5.91;100.00;98729.06;5047609;28;20040;-74
2022/09/21 00:31:26;;;;;;;9.23;2.15;;;6.70;99.90;;;5.97;100.00;98733.34;5065293;28;20055;-74
2022/09/21 00:33:53;;;;;;;4.80;1.40;;;6.70;99.90;;;5.89;100.00;98735.94;5065210;28;20048;-74
2022/09/21 00:36:23;;;;;;;4.85;1.90;;;6.70;99.90;;;5.81;100.00;98738.53;5047087;28;20044;-74
2022/09/21 00:38:57;;;;;;;8.18;2.63;;;6.60;99.90;;;5.91;100.00;98746.22;5063914;28;20048;-74
2022/09/21 00:41:26;;;;;;;8.00;2.20;;;6.60;99.90;;;5.82;100.00;98744.56;5040313;28;20045;-74
2022/09/21 00:44:32;;;;;;;9.32;2.25;;;6.60;99.90;;;5.91;100.00;98749.69;5046543;28;20059;-74
2022/09/21 00:47:09;;;;;;;5.15;2.20;;;6.60;99.90;;;5.91;100.00;98749.69;5020598;28;20045;-76
2022/09/21 00:49:37;;;;;;;5.40;1.98;;;6.60;99.90;;;5.93;100.00;98749.66;5042537;28;20056;-75
2022/09/21 00:52:05;;;;;;;6.22;2.05;;;6.60;99.90;;;5.79;100.00;98760.91;5045529;28;20048;-74
2022/09/21 00:54:46;;;;;;;8.10;1.63;;;6.60;99.90;;;5.73;100.00;98757.50;5064192;28;20049;-74
2022/09/21 00:57:15;;;;;;;5.38;2.10;;;6.50;99.90;;;5.84;100.00;98758.31;5045747;28;20106;-74
2022/09/21 00:59:44;;;;;;;5.45;2.05;;;6.50;99.90;;;5.81;100.00;98761.72;5063648;28;20102;-75
2022/09/21 01:02:11;;;;;;;8.60;2.38;;;6.50;99.90;;;5.87;100.00;98761.69;5046890;28;20674;-74
2022/09/21 01:04:38;;;;;;;5.05;2.03;;;6.50;99.90;;;5.91;100.00;98769.41;5063174;28;20463;-74
2022/09/21 01:07:12;;;;;;;8.35;2.50;;;6.50;99.90;;;5.89;100.00;98766.84;5064844;28;20048;-74
2022/09/21 01:09:42;;;;;;;9.38;2.40;;;6.50;99.90;;;5.84;100.00;98764.31;5045716;28;20091;-75
2022/09/21 01:12:58;;;;;;;7.70;2.95;;;6.50;99.90;;;5.82;100.00;98773.75;5045413;28;20056;-74
2022/09/21 01:15:47;;;;;;;5.50;2.10;;;6.50;99.90;;;5.73;100.00;98765.22;5052327;28;20058;-74
2022/09/21 01:18:34;;;;;;;7.53;2.10;;;6.40;99.90;;;5.71;100.00;98775.53;5059616;28;20041;-74
2022/09/21 01:21:21;;;;;;;6.13;2.17;;;6.40;99.90;;;5.78;100.00;98771.19;5062034;28;20056;-74
2022/09/21 01:24:36;;;;;;;7.45;2.88;;;6.30;99.90;;;5.74;100.00;98775.50;5059544;28;20061;-74
2022/09/21 01:27:38;;;;;;;4.68;1.88;;;6.40;99.90;;;5.73;100.00;98775.53;5075899;28;20048;-74
2022/09/21 01:30:13;;;;;;;5.93;1.58;;;6.40;99.90;;;5.77;100.00;98770.34;5051132;28;20063;-76
2022/09/21 01:32:58;;;;;;;4.75;1.98;;;6.40;99.90;;;5.55;100.00;98777.28;5048868;28;20048;-73
2022/09/21 01:35:40;;;;;;;7.20;1.35;;;6.40;99.90;;;5.62;100.00;98778.97;5068313;28;20190;-74
2022/09/21 01:38:18;;;;;;;4.68;1.20;;;6.30;99.90;;;5.65;100.00;98773.81;5068231;28;20048;-74
2022/09/21 01:40:54;;;;;;;4.78;1.33;;;6.30;99.90;;;5.63;100.00;98774.69;5051029;28;20056;-77
2022/09/21 01:43:32;;;;;;;6.30;1.70;;;6.20;99.90;;;5.59;100.00;98768.69;5064280;28;20155;-74
2022/09/21 01:46:02;;;;;;;5.25;1.60;;;6.30;99.90;;;5.69;100.00;98769.50;5049689;28;20045;-76
2022/09/21 01:48:34;;;;;;;3.85;1.60;;;6.20;99.90;;;5.69;100.00;98769.50;5036094;28;20554;-76
2022/09/21 01:51:06;;;;;;;6.22;1.67;;;6.20;99.90;;;5.61;100.00;98766.09;5067669;28;20040;-75
2022/09/21 01:53:53;;;;;;;4.38;1.30;;;6.10;99.90;;;5.55;100.00;98763.56;5066594;28;20048;-74
2022/09/21 01:57:06;;;;;;;5.10;2.28;;;6.10;99.90;;;5.55;100.00;98759.25;5048323;28;20684;-74
2022/09/21 01:59:52;;;;;;;8.88;2.08;;;6.10;99.90;;;5.49;100.00;98750.69;5064566;28;20060;-74
2022/09/21 02:02:31;;;;;;;3.35;2.03;;;6.10;99.90;;;5.40;100.00;98742.13;5064467;28;20066;-74
2022/09/21 02:05:01;;;;;;;2.97;1.33;;;6.00;99.90;;;5.36;100.00;98743.03;5046766;28;20732;-74
2022/09/21 02:07:28;;;;;;;4.75;1.60;;;6.00;99.90;;;5.33;100.00;98737.88;5064992;28;20402;-74
2022/09/21 02:09:55;;;;;;;6.05;1.60;;;6.00;99.90;;;5.32;100.00;98748.19;5028839;28;20047;-74
2022/09/21 02:12:22;;;;;;;4.05;1.55;;;6.00;99.90;;;5.30;100.00;98737.88;5031996;28;20048;-75
2022/09/21 02:14:54;;;;;;;4.18;1.55;;;5.90;99.90;;;5.33;100.00;98737.88;5061158;28;20413;-74
2022/09/21 02:18:00;;;;;;;3.47;1.17;;;5.90;99.90;;;5.27;100.00;98744.75;5046619;28;20044;-74
2022/09/21 02:20:35;;;;;;;4.97;1.40;;;5.90;99.90;;;5.15;100.00;98737.91;5043009;28;20605;-74
2022/09/21 02:23:17;;;;;;;13.45;1.70;;;5.80;99.90;;;5.07;100.00;98737.09;5041431;28;20216;-74
2022/09/21 02:26:02;;;;;;;5.43;1.65;;;5.80;99.90;;;5.08;100.00;98731.06;5054586;28;20053;-74
2022/09/21 02:29:00;;;;;;;2.97;1.20;;;5.80;99.90;;;5.12;100.00;98731.06;5044184;28;20140;-75
2022/09/21 02:32:04;;;;;;;2.58;1.05;;;5.80;99.90;;;5.14;100.00;98729.34;5034457;28;20072;-74
2022/09/21 02:34:44;;;;;;;;;;;5.80;99.90;;;4.99;100.00;98727.66;5045919;28;20046;-75
2022/09/21 02:37:23;;;;;;;3.13;1.20;;;5.70;99.90;;;5.02;100.00;98726.81;5014575;28;19927;-74
2022/09/21 02:40:21;;;;;;;6.15;1.77;;;5.70;99.90;;;4.99;100.00;98729.38;5045250;28;20075;-74
2022/09/21 02:42:56;;;;;;;10.05;1.67;;;5.60;99.90;;;4.97;100.00;98724.25;5046655;28;20144;-74
2022/09/21 02:45:31;;;;;;;3.35;1.88;;;5.60;99.90;;;4.88;100.00;98726.84;5028991;28;20064;-74
2022/09/21 02:48:08;;;;;;;8.65;1.75;;;5.50;99.90;;;4.94;100.00;98725.94;5031643;28;20053;-74
2022/09/21 02:50:45;;;;;;;4.43;1.40;;;5.60;99.90;;;4.91;100.00;98725.97;5023646;28;21252;-74
2022/09/21 02:53:19;;;;;;;6.15;1.58;;;5.60;99.90;;;4.80;100.00;98729.41;5031246;28;20910;-74
2022/09/21 02:55:48;;;;;;;3.35;1.70;;;5.50;99.90;;;4.82;100.00;98730.25;5030636;28;20586;-74
2022/09/21 02:58:25;;;;;;;4.80;1.52;;;5.50;99.90;;;4.84;100.00;98729.41;5048660;28;20049;-74
2022/09/21 03:00:55;;;;;;;3.97;1.55;;;5.50;99.90;;;4.82;100.00;98731.97;5031410;28;20152;-74
2022/09/21 03:03:25;;;;;;;7.20;1.70;;;5.50;99.90;;;4.85;100.00;98731.13;5027964;28;20049;-74
2022/09/21 03:05:54;;;;;;;3.60;1.42;;;5.40;99.90;;;4.81;100.00;98735.38;5011237;28;20055;-74
2022/09/21 03:08:22;;;;;;;4.05;1.17;;;5.40;99.90;;;4.74;100.00;98737.09;5029247;28;20494;-74
2022/09/21 03:10:49;;;;;;;5.43;1.60;;;5.40;99.90;;;4.72;100.00;98735.41;5045369;28;20449;-74
2022/09/21 03:13:17;;;;;;;3.45;1.30;;;5.40;99.90;;;4.69;100.00;98736.25;5032076;28;20044;-74
2022/09/21 03:15:45;;;;;;;4.00;1.10;;;5.40;99.90;;;4.67;100.00;98735.41;5043601;28;20052;-74
2022/09/21 03:18:12;;;;;;;4.10;1.20;;;5.40;99.90;;;4.82;100.00;98731.97;5025998;28;20645;-74
2022/09/21 03:20:44;;;;;;;5.50;1.40;;;5.40;99.90;;;4.85;100.00;98739.69;5046556;28;20056;-74
2022/09/21 03:23:12;;;;;;;3.50;1.10;;;5.40;99.90;;;4.74;100.00;98736.25;5045146;28;20157;-74
2022/09/21 03:25:43;;;;;;;4.55;0.93;;;5.40;99.90;;;4.56;100.00;98734.53;5057312;28;20049;-74
2022/09/21 03:28:11;;;;;;;7.40;2.40;;;5.30;99.90;;;4.74;100.00;98738.84;5048396;28;20048;-74
2022/09/21 03:30:38;;;;;;;5.88;1.52;;;5.30;99.90;;;4.65;100.00;98739.69;5065113;28;20052;-74
2022/09/21 03:33:05;;;;;;;5.47;1.80;;;5.30;99.90;;;4.64;100.00;98742.28;5065951;28;20466;-74
2022/09/21 03:35:33;;;;;;;5.90;1.58;;;5.30;99.90;;;4.66;100.00;98754.28;5044757;28;20445;-74
2022/09/21 03:38:01;;;;;;;6.35;1.70;;;5.30;99.90;;;4.69;100.00;98748.28;5048365;28;20063;-74
2022/09/21 03:40:28;;;;;;;4.80;1.10;;;5.30;99.90;;;4.75;100.00;98756.00;5059883;28;20055;-74
2022/09/21 03:42:55;;;;;;;5.38;1.83;;;5.30;99.90;;;4.68;100.00;98759.44;5048178;28;20099;-74
2022/09/21 03:45:23;;;;;;;5.85;2.05;;;5.30;99.90;;;4.70;100.00;98755.13;5046098;28;20055;-74
2022/09/21 03:47:53;;;;;;;2.78;1.25;;;5.30;99.90;;;4.76;100.00;98752.56;5064714;28;20048;-74
2022/09/21 03:50:20;;;;;;;5.03;1.38;;;5.30;99.90;;;4.72;100.00;98751.72;5045192;28;20073;-75
2022/09/21 03:52:47;;;;;;;5.95;1.40;;;5.30;99.90;;;4.68;100.00;98750.00;5057778;28;20049;-74
2022/09/21 03:55:14;;;;;;;3.35;1.35;;;5.20;99.90;;;4.64;100.00;98745.69;5045378;28;20057;-74
2022/09/21 03:57:41;;;;;;;4.20;0.90;;;5.20;99.90;;;4.58;100.00;98733.72;5061881;28;20072;-74
2022/09/21 04:00:09;;;;;;;3.85;1.17;;;5.20;99.90;;;4.51;100.00;98743.97;5061995;28;20052;-74
2022/09/21 04:02:39;;;;;;;3.67;1.38;;;5.20;99.90;;;4.52;100.00;98738.84;5064254;28;20052;-74
2022/09/21 04:05:09;;;;;;;4.28;1.23;;;5.10;99.90;;;4.60;100.00;98741.41;5047525;28;20053;-74
2022/09/21 04:07:37;;;;;;;4.60;1.10;;;5.10;99.90;;;4.60;100.00;98739.69;5046086;28;20049;-74
2022/09/21 04:10:07;;;;;;;4.22;1.25;;;5.10;99.90;;;4.53;100.00;98727.69;5047127;28;20040;-75
2022/09/21 04:12:35;;;;;;;3.35;1.15;;;5.10;99.90;;;4.47;100.00;98732.84;5045840;28;20071;-75
2022/09/21 04:15:04;;;;;;;3.55;1.45;;;5.10;99.90;;;4.49;100.00;98732.84;5062711;28;20044;-74
2022/09/21 04:17:30;;;;;;;3.85;1.35;;;5.10;99.90;;;4.36;100.00;98732.84;5064963;28;20143;-76
2022/09/21 04:19:57;;;;;;;10.38;2.53;;;5.10;99.90;;;4.30;100.00;98737.97;5063044;28;20059;-76
2022/09/21 04:22:24;;;;;;;14.57;2.72;;;5.00;99.90;;;4.36;100.00;98742.28;5062992;28;20037;-76
2022/09/21 04:24:51;;;;;;;5.28;2.42;;;5.00;99.90;;;4.33;100.00;98750.84;5062238;28;20091;-74
2022/09/21 04:27:18;;;;;;;4.05;2.20;;;5.00;99.90;;;4.38;100.00;98745.69;5043806;28;20052;-74
2022/09/21 04:29:45;;;;;;;12.82;2.72;;;5.00;99.90;;;4.44;100.00;98750.81;5042888;28;20055;-73
2022/09/21 04:32:13;;;;;;;10.60;3.20;;;5.00;99.90;;;4.49;100.00;98756.81;5047985;28;20420;-73
2022/09/21 04:34:41;;;;;;;6.63;2.63;;;5.10;99.90;;;4.57;100.00;98762.00;5062786;28;20071;-73
2022/09/21 04:37:12;;;;;;;5.30;1.88;;;5.10;99.90;;;4.58;100.00;98769.72;5064353;28;20052;-74
2022/09/21 04:39:39;;;;;;;7.30;2.55;;;5.20;99.90;;;4.62;100.00;98778.28;5030324;28;20060;-75
2022/09/21 04:42:06;;;;;;;8.55;2.65;;;5.20;99.90;;;4.66;100.00;98779.16;5062525;28;20049;-73
2022/09/21 04:44:33;;;;;;;9.00;1.95;;;5.20;99.90;;;4.67;100.00;98779.13;5062713;28;20056;-75
2022/09/21 04:47:00;;;;;;;7.22;2.42;;;5.30;99.90;;;4.52;100.00;98784.28;5063215;28;20081;-74
2022/09/21 04:49:27;;;;;;;6.10;2.50;;;5.20;99.90;;;4.58;100.00;98790.28;5044370;28;20052;-74
2022/09/21 04:51:53;;;;;;;6.22;1.58;;;5.20;99.90;;;4.53;100.00;98793.69;5065240;28;20049;-74
2022/09/21 04:54:21;;;;;;;2.95;1.50;;;5.20;99.90;;;4.53;100.00;98801.41;5064000;28;20098;-75
2022/09/21 04:56:47;;;;;;;6.65;2.50;;;5.10;99.90;;;4.53;100.00;98797.13;5064573;28;20056;-74
2022/09/21 04:59:14;;;;;;;9.20;4.00;;;5.10;99.90;;;4.60;100.00;98795.41;5044290;28;20537;-74
2022/09/21 05:01:41;;;;;;;5.35;2.90;;;5.10;99.90;;;4.61;100.00;98800.56;5053575;28;20064;-74
2022/09/21 05:04:08;;;;;;;8.10;3.95;;;5.10;99.90;;;4.66;100.00;98807.44;5068890;28;20064;-73
2022/09/21 05:06:35;;;;;;;9.02;3.63;;;5.20;99.90;;;4.68;100.00;98801.44;5049755;28;20110;-74
2022/09/21 05:11:48;;;;;;;10.63;5.28;;;5.30;99.90;;;4.73;100.00;98814.28;5065407;28;20565;-74
2022/09/21 05:14:15;;;;;;;8.85;3.80;;;5.30;99.90;;;4.72;100.00;98805.72;5045008;28;20051;-74
2022/09/21 05:16:42;;;;;;;8.02;2.72;;;5.30;99.90;;;4.70;100.00;98811.69;5051058;28;21936;-74
2022/09/21 05:19:09;;;;;;;5.50;2.60;;;5.30;99.90;;;4.73;100.00;98816.88;5065090;28;20147;-74
2022/09/21 05:21:36;;;;;;;5.70;2.92;;;5.30;99.90;;;4.77;100.00;98813.44;5065155;28;20382;-74
2022/09/21 05:24:03;;;;;;;5.97;2.75;;;5.30;99.90;;;4.66;100.00;98817.72;5047701;28;20156;-74
2022/09/21 05:26:30;;;;;;;12.30;3.97;;;5.30;99.90;;;4.69;100.00;98823.72;5066949;28;20052;-74
2022/09/21 05:28:58;;;;;;;5.47;2.97;;;5.30;99.90;;;4.73;100.00;98822.00;5049492;28;20489;-74
2022/09/21 05:31:47;;;;;;;4.93;2.42;;;5.30;99.90;;;4.66;100.00;98823.72;5048227;28;20124;-74
2022/09/21 05:34:28;;;;;;;9.02;3.60;;;5.30;99.90;;;4.68;100.00;98827.16;5062273;28;20053;-74
2022/09/21 05:37:30;;;;;;;6.68;3.00;;;5.30;99.90;;;4.77;100.00;98823.72;5063648;28;20142;-74
2022/09/21 05:39:57;;;;;;;8.25;3.00;;;5.30;99.90;;;4.76;100.00;98830.56;5064820;28;20056;-74
2022/09/21 05:42:25;;;;;;;7.72;2.90;;;5.40;99.90;;;4.66;100.00;98828.84;5063006;28;20079;-74
2022/09/21 05:44:54;;;;;;;5.10;2.60;;;5.30;99.90;;;4.62;100.00;98822.00;5067696;28;20079;-74
2022/09/21 05:48:22;;;;;;;4.72;2.00;;;5.40;99.90;;;4.66;100.00;98834.00;5049684;28;20052;-74
2022/09/21 05:51:24;;;;;;;3.75;2.25;;;5.30;99.90;;;4.72;100.00;98828.88;5004160;28;20096;-74
2022/09/21 05:54:21;;;;;;;6.72;3.50;;;5.40;99.90;;;4.73;100.00;98834.88;5065600;28;20050;-74
2022/09/21 05:57:14;;;;;;;8.52;3.63;;;5.40;99.90;;;4.75;100.00;98835.72;5065903;28;20057;-74
2022/09/21 06:00:13;;;;;;;8.63;5.07;;;5.40;99.90;;;4.84;100.00;98845.19;5050155;28;20048;-74
2022/09/21 06:03:04;;;;;;;10.93;6.57;;;5.50;99.90;;;4.80;100.00;98846.88;5067098;28;20067;-74
2022/09/21 06:05:34;;;;;;;11.02;5.65;;;5.60;99.90;;;4.85;100.00;98849.44;5062175;28;20513;-74
2022/09/21 06:08:04;;;;;;;12.10;6.38;;;5.60;99.90;;;4.88;100.00;98852.00;5065260;28;20144;-74
2022/09/21 06:10:33;;;;;;;10.45;5.97;;;5.70;99.90;;;4.96;100.00;98858.88;5064983;28;20512;-74
2022/09/21 06:13:01;;;;;;;14.02;6.10;;;5.80;99.90;;;5.11;100.00;98862.31;5062778;28;20452;-74
2022/09/21 06:15:28;;;;;;;13.18;6.15;;;5.90;99.90;;;5.12;100.00;98857.19;5052943;28;20044;-74
2022/09/21 06:17:54;;;;;;;12.00;6.78;;;5.90;99.90;;;5.16;100.00;98858.91;5066798;28;20040;-74
2022/09/21 06:20:23;;;;;;;14.73;6.38;;;6.00;99.90;;;5.21;100.00;98862.31;5049897;28;20049;-74
2022/09/21 06:22:50;;;;;;;12.32;5.85;;;6.00;99.90;;;5.22;100.00;98864.06;5064225;28;20067;-74
2022/09/21 06:25:19;;;;;;;17.42;7.25;;;6.10;99.90;;;5.36;100.00;98869.19;5039320;28;20041;-76
2022/09/21 06:27:46;;;;;;;15.50;7.57;;;6.20;99.90;;;5.35;100.00;98867.44;5044906;28;20097;-76
2022/09/21 06:30:13;;;;;;;16.15;6.32;;;6.20;99.90;;;5.40;100.00;98870.03;5044073;28;20118;-75
2022/09/21 06:32:40;;;;;;;13.85;7.63;;;6.20;99.90;;;5.52;100.00;98870.03;5041774;28;20053;-76
2022/09/21 06:35:07;;;;;;;15.32;7.22;;;6.30;99.90;;;5.51;100.00;98868.28;5045624;28;20060;-75
2022/09/21 06:37:34;;;;;;;16.27;7.72;;;6.40;99.90;;;5.71;100.00;98872.56;5043154;28;20053;-75
2022/09/21 06:40:01;;;;;;;11.15;7.32;;;6.50;99.90;;;5.92;100.00;98882.78;5057390;28;20110;-76
2022/09/21 06:42:28;;;;;;;19.25;6.80;;;6.70;99.90;;;6.18;100.00;98893.06;5044838;28;20443;-76
2022/09/21 06:44:55;;;;;;;12.57;7.15;;;6.90;99.90;;;6.41;100.00;98902.41;5045122;28;20486;-75
2022/09/21 06:47:22;;;;;;;17.58;6.60;;;7.10;99.90;;;6.67;100.00;98900.56;5041689;28;20052;-75
2022/09/21 06:49:49;;;;;;;12.43;6.47;;;7.40;99.90;;;6.81;100.00;98909.94;5044933;28;20061;-75
2022/09/21 06:52:16;;;;;;;13.45;6.57;;;7.50;99.90;;;6.97;100.00;98911.56;5060385;28;20689;-75
2022/09/21 06:54:43;;;;;;;11.23;6.72;;;7.70;99.90;;;7.13;100.00;98920.91;5045093;28;20132;-75
2022/09/21 06:57:10;;;;;;;14.93;6.78;;;7.90;99.90;;;7.27;100.00;98935.44;5058656;28;20155;-76
2022/09/21 06:59:37;;;;;;;10.82;6.80;;;8.00;99.90;;;7.39;100.00;98930.19;5043029;28;20061;-75
2022/09/21 07:02:08;;;;;;;14.27;7.60;;;8.10;99.90;;;7.57;100.00;98931.75;5043886;28;20053;-75
2022/09/21 07:04:35;;;;;;;13.55;7.95;;;8.30;99.90;;;7.61;100.00;98932.59;5045825;28;20048;-76
2022/09/21 07:07:02;;;;;;;14.43;7.72;;;8.40;99.90;;;7.72;100.00;98931.63;5044527;28;20525;-75
2022/09/21 07:09:30;;;;;;;20.90;8.25;;;8.50;99.90;;;7.80;100.00;98931.56;5044130;28;20049;-75
2022/09/21 07:12:17;;;;;;;14.52;6.40;;;8.60;99.90;;;7.91;100.00;98937.47;5042115;28;20122;-75
2022/09/21 07:14:45;;;;;;;13.57;7.03;;;8.70;99.90;;;7.97;100.00;98928.78;5040668;28;20055;-75
2022/09/21 07:17:13;;;;;;;22.98;6.75;;;8.80;99.90;;;7.95;100.00;98936.56;5045626;28;20068;-75
2022/09/21 07:19:41;;;;;;;17.55;8.55;;;8.90;99.90;;;8.06;100.00;98925.25;5042152;28;20140;-75
2022/09/21 07:22:11;;;;;;;19.08;8.35;;;8.90;99.90;;;8.17;100.00;98932.03;5043225;28;20049;-75
2022/09/21 07:24:40;;;;;;;15.45;8.50;;;9.00;99.90;;;8.19;100.00;98929.44;5046546;28;20481;-75
2022/09/21 07:27:07;;;;;;;16.77;9.15;;;9.00;99.90;;;8.26;100.00;98925.03;5063968;28;20117;-75
2022/09/21 07:29:33;;;;;;;17.10;8.85;;;9.10;99.90;;;8.30;100.00;98930.16;5063368;28;20451;-74
2022/09/21 07:32:00;;;;;;;16.30;7.72;;;9.20;99.90;;;8.37;100.00;98931.78;5047403;28;20048;-74
2022/09/21 07:34:27;;;;;;;18.38;8.27;;;9.20;99.90;;;8.59;100.00;98939.31;5033455;28;20041;-74
2022/09/21 07:36:58;;;;;;;16.20;8.45;;;9.40;99.90;;;8.52;100.00;98938.53;5061935;28;20056;-74
2022/09/21 07:39:24;;;;;;;12.63;7.95;;;9.40;99.90;;;8.58;100.00;98935.88;5062933;28;20059;-74
2022/09/21 07:41:51;;;;;;;11.35;7.50;;;9.50;99.90;;;8.74;100.00;98939.13;5065278;28;20048;-74
2022/09/21 07:44:21;;;;;;;13.00;6.55;;;9.80;99.90;;;8.87;100.00;98933.75;5065482;28;20049;-74
2022/09/21 07:46:48;;;;;;;12.30;6.32;;;10.10;99.90;;;9.09;100.00;98932.56;5061435;28;20160;-74
2022/09/21 07:49:15;;;;;;;13.93;6.70;;;10.40;99.90;;;9.17;100.00;98920.38;5043785;28;20052;-74
2022/09/21 07:51:42;;;;;;;11.65;5.85;;;10.50;99.90;;;9.79;100.00;98921.94;5059532;28;20052;-74
2022/09/21 07:54:11;;;;;;;9.27;5.32;;;11.00;99.90;;;10.17;100.00;98904.78;5029512;28;20474;-74
2022/09/21 07:56:38;;;;;;;11.73;5.75;;;11.20;99.90;;;10.49;100.00;98874.75;5044826;28;20410;-75
2022/09/21 07:59:05;;;;;;;7.80;4.32;;;11.50;99.90;;;11.45;100.00;98871.66;5064011;28;20055;-75
2022/09/21 08:01:38;;;;;;;9.73;3.50;;;12.10;99.90;;;11.41;100.00;98826.69;5063182;28;20502;-74
2022/09/21 08:04:10;;;;;;;7.32;3.58;;;12.30;99.90;;;11.79;100.00;98790.13;5059694;28;20144;-74
2022/09/21 08:06:38;;;;;;;6.05;3.22;;;12.70;99.90;;;12.20;100.00;98751.66;5061189;28;20064;-75
2022/09/21 08:09:07;;;;;;;7.43;2.42;;;12.80;99.90;;;12.12;100.00;98705.91;5044524;28;20049;-74
2022/09/21 08:11:36;;;;;;;6.80;2.15;;;13.00;99.90;;;12.90;100.00;98681.69;5045913;28;20465;-74
2022/09/21 08:14:03;;;;;;;5.18;3.08;;;13.20;99.90;;;13.08;100.00;98648.06;5062542;28;20361;-74
2022/09/21 08:16:32;;;;;;;10.60;2.17;;;13.50;99.90;;;13.34;100.00;98627.16;5046557;28;20052;-75
2022/09/21 08:19:01;;;;;;;7.13;2.28;;;13.70;99.90;;;13.14;100.00;98604.38;5063615;28;20131;-74
2022/09/21 08:21:27;;;;;;;7.15;2.00;;;13.80;99.90;;;13.17;100.00;98595.59;5046562;28;20049;-75
2022/09/21 08:23:54;;;;;;;4.70;1.85;;;13.90;99.90;;;13.47;100.00;98571.91;5064000;28;20413;-75
2022/09/21 08:26:22;;;;;;;7.20;1.70;;;14.10;99.90;;;13.32;100.00;98558.56;5059183;28;20059;-75
2022/09/21 08:28:52;;;;;;;8.55;2.28;;;14.20;99.90;;;13.83;100.00;98548.75;5048285;28;20481;-75
2022/09/21 08:31:21;;;;;;;3.42;1.35;;;14.60;99.90;;;13.92;100.00;98542.31;5062820;28;20060;-75
2022/09/21 08:33:49;;;;;;;6.75;1.45;;;14.70;99.90;;;13.46;100.00;98533.72;5049273;28;20078;-75
2022/09/21 08:36:18;;;;;;;8.73;1.58;;;14.70;99.90;;;13.79;100.00;98527.13;5034065;28;20044;-75
2022/09/21 08:38:45;;;;;;;4.43;1.10;;;14.70;99.90;;;13.95;100.00;98522.13;5043146;28;20048;-75
2022/09/21 08:41:39;;;;;;;8.10;1.60;;;14.90;99.90;;;14.05;100.00;98529.59;5068749;28;20466;-75
2022/09/21 08:44:33;;;;;;;5.25;1.45;;;15.20;99.90;;;14.72;100.00;98518.06;5068646;28;20052;-75
2022/09/21 08:47:42;;;;;;;5.30;1.40;;;;;;;14.21;100.00;98515.84;5050811;28;20061;-75
2022/09/21 08:50:45;;;;;;;5.78;1.30;;;15.70;99.90;;;14.75;100.00;98510.91;5067072;28;20052;-75
2022/09/21 08:53:43;;;;;;;5.70;1.20;;;15.70;99.90;;;14.34;100.00;98497.03;5064406;28;20052;-75
2022/09/21 08:56:12;;;;;;;5.50;1.38;;;15.70;99.90;;;14.61;100.00;98500.25;5048518;28;20103;-75
2022/09/21 08:58:40;;;;;;;4.45;0.93;;;15.90;99.90;;;14.75;100.00;98502.25;5044102;28;20055;-75
2022/09/21 09:01:22;;;;;;;4.45;1.00;;;15.80;99.90;;;15.13;100.00;98497.03;5044820;28;20110;-75
2022/09/21 09:04:15;;;;;;;;;;;16.10;99.90;;;15.10;100.00;98494.53;5066432;28;20083;-75
2022/09/21 09:07:01;;;;;;;5.75;0.98;;;;;;;15.00;100.00;98487.13;5042640;28;19927;-75
2022/09/21 09:10:10;;;;;;;8.68;1.00;;;16.10;99.90;;;15.01;100.00;98478.38;5068213;28;20052;-74
2022/09/21 09:13:15;;;;;;;3.50;0.82;;;16.30;99.90;;;15.41;100.00;98475.66;5063656;28;21344;-74
2022/09/21 09:16:03;;;;;;;6.93;0.95;;;16.60;99.90;;;15.33;100.00;98462.94;5065458;28;20523;-74
2022/09/21 09:18:49;;;;;;;4.13;0.90;;;16.60;99.90;;;14.75;100.00;98465.66;5042287;28;20048;-74
2022/09/21 09:21:22;;;;;;;2.65;0.60;;;16.40;99.90;;;15.34;100.00;98469.03;5047279;28;20611;-74
2022/09/21 09:24:09;;;;;;;9.47;0.80;;;16.50;99.90;;;15.48;100.00;98461.34;5064468;28;20041;-74
2022/09/21 09:26:51;;;;;;;2.47;0.60;;;16.80;99.90;;;15.87;100.00;98466.44;5040359;28;20056;-74
2022/09/21 09:29:49;;;;;;;5.63;0.70;;;17.20;99.90;;;16.28;100.00;98465.25;5042597;28;20044;-74
2022/09/21 09:32:17;;;;;;;1.88;0.70;;;;;;;16.15;100.00;98451.97;5038439;28;20580;-74
2022/09/21 09:34:54;;;;;;;5.22;0.95;;;17.60;99.90;;;16.39;100.00;98456.84;5057069;28;20063;-74
2022/09/21 09:37:29;;;;;;;5.53;0.80;;;18.00;99.90;;;16.08;100.00;98458.44;5041938;28;20543;-74
2022/09/21 09:39:59;;;;;;;5.03;0.63;;;17.70;99.90;;;15.82;100.00;98450.09;5042298;28;20053;-74
2022/09/21 09:42:35;;;;;;;2.33;0.60;;;17.60;99.90;;;15.84;100.00;98450.03;5058755;28;20447;-74
2022/09/21 09:45:21;;;;;;;8.02;0.80;;;17.70;99.90;;;16.24;100.00;98448.88;5040140;28;20064;-75
2022/09/21 09:49:04;;;;;;;2.05;0.70;;;17.90;99.90;;;16.88;100.00;98446.41;5043012;28;20052;-74
2022/09/21 09:51:35;;;;;;;6.10;0.73;;;18.40;99.90;;;16.98;100.00;98446.75;5033834;28;20049;-74
2022/09/21 09:54:03;;;;;;;;;;;18.50;99.90;;;15.93;100.00;98440.88;5043311;28;20044;-74
2022/09/21 09:56:36;;;;;;;6.75;0.90;;;18.10;99.90;;;16.54;100.00;98442.09;5045261;28;20086;-75
2022/09/21 09:59:12;;;;;;;7.50;1.02;;;17.60;99.90;;;16.22;100.00;98444.63;5045463;28;20055;-74
2022/09/21 10:01:48;;;;;;;4.72;0.73;;;17.30;99.90;;;16.58;100.00;98430.50;5043231;28;20518;-73
2022/09/21 10:04:16;;;;;;;3.38;0.68;;;17.20;99.90;;;16.23;100.00;98427.97;5054068;28;20430;-74
2022/09/21 10:06:44;;;;;;;3.08;0.50;;;;;;;16.34;100.00;98427.44;5055696;28;20816;-74
2022/09/21 10:09:34;;;;;;;1.58;0.45;;;16.70;99.90;;;15.88;100.00;98421.00;5058420;28;20543;-75
2022/09/21 10:12:24;;;;;;;3.72;0.50;;;16.40;99.90;;;15.18;100.00;98425.28;5040833;28;20589;-74
2022/09/21 10:14:55;;;;;;;3.53;0.60;;;16.10;99.90;;;14.91;100.00;98429.19;5034780;28;20079;-75
2022/09/21 10:17:23;;;;;;;2.97;0.52;;;15.80;99.90;;;15.40;100.00;98417.25;5039553;28;20422;-74
2022/09/21 10:20:07;;;;;;;5.53;0.68;;;;;;;15.50;100.00;98422.88;5035520;28;20064;-74
2022/09/21 10:22:34;;;;;;;3.78;0.60;;;;;;;15.05;100.00;98416.31;5038687;28;20487;-74
2022/09/21 10:25:04;;;;;;;4.80;0.50;;;15.90;99.90;;;14.16;100.00;98421.22;5043068;28;20170;-74
2022/09/21 10:27:42;;;;;;;3.47;0.60;;;15.50;99.90;;;13.88;100.00;98420.69;5012811;28;20057;-75
2022/09/21 10:30:28;;;;;;;5.38;0.90;;;15.20;99.90;;;13.75;100.00;98421.22;5024466;28;20399;-74
2022/09/21 10:32:57;;;;;;;2.08;0.70;;;14.80;99.90;;;13.80;100.00;98421.03;5043562;28;20056;-74
2022/09/21 10:35:26;;;;;;;1.42;0.50;;;;;;;13.71;100.00;98424.03;5041935;28;20073;-74
2022/09/21 10:38:16;;;;;;;2.45;0.73;;;;;;;14.16;100.00;98417.72;5043084;28;20642;-75
2022/09/21 10:40:49;;;;;;;1.83;0.60;;;15.00;99.90;;;14.39;100.00;98417.59;5042242;28;20049;-74
2022/09/21 10:43:49;;;;;;;3.00;0.60;;;15.00;99.90;;;14.68;100.00;98411.97;5043358;28;20136;-74
2022/09/21 10:46:17;;;;;;;3.08;0.50;;;15.60;99.90;;;14.89;100.00;98410.13;5010455;28;20052;-74
2022/09/21 10:48:45;;;;;;;3.72;0.70;;;15.70;99.90;;;14.83;100.00;98411.28;5042009;28;20048;-73
2022/09/21 10:51:28;;;;;;;1.80;0.55;;;15.80;99.90;;;14.88;100.00;98403.22;5043968;28;20093;-74
2022/09/21 10:53:55;;;;;;;;;;;16.00;99.90;;;14.65;100.00;98412.97;5043255;28;20045;-74
2022/09/21 10:56:22;;;;;;;2.60;0.60;;;15.90;99.90;;;14.56;100.00;98419.44;5061361;28;19925;-74